sensor_id;sensor_type;location;lat;lon;timestamp;pressure;altitude;pressure_sealevel;temperature;humidity
29215;BME280;16252;49.816;7.964;2024-03-25T00:01:12;99241.28;;;9.88;50.28
29215;BME280;16252;49.816;7.964;2024-03-25T00:03:37;99223.69;;;9.85;50.39
29215;BME280;16252;49.816;7.964;2024-03-25T00:06:03;99234.81;;;9.90;50.29
29215;BME280;16252;49.816;7.964;2024-03-25T00:08:28;99223.94;;;9.82;50.37
29215;BME280;16252;49.816;7.964;2024-03-25T00:10:53;99238.19;;;9.92;50.14
29215;BME280;16252;49.816;7.964;2024-03-25T00:13:20;99235.22;;;9.86;50.09
29215;BME280;16252;49.816;7.964;2024-03-25T00:15:45;99250.59;;;9.93;50.17
29215;BME280;16252;49.816;7.964;2024-03-25T00:18:11;99242.56;;;9.93;50.09
29215;BME280;16252;49.816;7.964;2024-03-25T00:20:36;99250.84;;;9.90;49.90
29215;BME280;16252;49.816;7.964;2024-03-25T00:23:01;99246.47;;;9.89;49.89
29215;BME280;16252;49.816;7.964;2024-03-25T00:25:27;99244.06;;;9.86;49.81
29215;BME280;16252;49.816;7.964;2024-03-25T00:27:52;99264.78;;;9.94;50.05
29215;BME280;16252;49.816;7.964;2024-03-25T00:30:17;99266.09;;;9.99;50.04
29215;BME280;16252;49.816;7.964;2024-03-25T00:32:43;99238.00;;;9.84;50.01
29215;BME280;16252;49.816;7.964;2024-03-25T00:35:08;99233.66;;;9.83;50.05
29215;BME280;16252;49.816;7.964;2024-03-25T00:37:33;99230.53;;;9.78;50.17
29215;BME280;16252;49.816;7.964;2024-03-25T00:39:58;99233.78;;;9.82;50.02
29215;BME280;16252;49.816;7.964;2024-03-25T00:42:24;99237.16;;;9.84;49.96
29215;BME280;16252;49.816;7.964;2024-03-25T00:44:49;99220.88;;;9.66;49.99
29215;BME280;16252;49.816;7.964;2024-03-25T00:47:14;99237.81;;;9.76;49.99
29215;BME280;16252;49.816;7.964;2024-03-25T00:49:40;99225.00;;;9.70;50.13
29215;BME280;16252;49.816;7.964;2024-03-25T00:52:05;99178.09;;;9.35;50.06
29215;BME280;16252;49.816;7.964;2024-03-25T00:54:30;99217.03;;;9.59;49.89
29215;BME280;16252;49.816;7.964;2024-03-25T00:56:55;99231.22;;;9.59;49.76
29215;BME280;16252;49.816;7.964;2024-03-25T00:59:21;99205.25;;;9.40;49.71
29215;BME280;16252;49.816;7.964;2024-03-25T01:01:46;99237.81;;;9.55;49.63
29215;BME280;16252;49.816;7.964;2024-03-25T01:04:11;99222.00;;;9.42;49.84
29215;BME280;16252;49.816;7.964;2024-03-25T01:06:37;99225.31;;;9.35;49.88
29215;BME280;16252;49.816;7.964;2024-03-25T01:09:03;99207.50;;;9.24;49.93
29215;BME280;16252;49.816;7.964;2024-03-25T01:11:29;99242.47;;;9.42;50.14
29215;BME280;16252;49.816;7.964;2024-03-25T01:13:55;99208.75;;;9.20;50.00
29215;BME280;16252;49.816;7.964;2024-03-25T01:16:20;99215.19;;;9.17;50.26
29215;BME280;16252;49.816;7.964;2024-03-25T01:18:45;99220.38;;;9.19;50.02
29215;BME280;16252;49.816;7.964;2024-03-25T01:21:11;99223.03;;;9.19;50.09
29215;BME280;16252;49.816;7.964;2024-03-25T01:23:36;99234.44;;;9.21;50.16
29215;BME280;16252;49.816;7.964;2024-03-25T01:26:01;99246.88;;;9.31;50.19
29215;BME280;16252;49.816;7.964;2024-03-25T01:28:26;99226.44;;;9.21;50.37
29215;BME280;16252;49.816;7.964;2024-03-25T01:30:52;99228.63;;;9.16;50.42
29215;BME280;16252;49.816;7.964;2024-03-25T01:33:17;99210.47;;;9.09;50.34
29215;BME280;16252;49.816;7.964;2024-03-25T01:35:43;99250.66;;;9.29;50.50
29215;BME280;16252;49.816;7.964;2024-03-25T01:38:08;99216.53;;;9.11;50.52
29215;BME280;16252;49.816;7.964;2024-03-25T01:40:34;99226.69;;;9.18;50.60
29215;BME280;16252;49.816;7.964;2024-03-25T01:43:01;99249.34;;;9.23;50.63
29215;BME280;16252;49.816;7.964;2024-03-25T01:45:28;99251.91;;;9.25;50.67
29215;BME280;16252;49.816;7.964;2024-03-25T01:47:55;99248.03;;;9.18;50.65
29215;BME280;16252;49.816;7.964;2024-03-25T01:50:21;99247.78;;;9.21;50.82
29215;BME280;16252;49.816;7.964;2024-03-25T01:52:47;99206.41;;;8.94;50.70
29215;BME280;16252;49.816;7.964;2024-03-25T01:55:17;99223.56;;;9.13;50.76
29215;BME280;16252;49.816;7.964;2024-03-25T01:57:46;99222.38;;;9.05;50.82
29215;BME280;16252;49.816;7.964;2024-03-25T02:00:12;99245.97;;;9.21;50.73
29215;BME280;16252;49.816;7.964;2024-03-25T02:02:40;99212.91;;;9.01;50.73
29215;BME280;16252;49.816;7.964;2024-03-25T02:05:07;99233.25;;;9.14;50.74
29215;BME280;16252;49.816;7.964;2024-03-25T02:07:35;99220.31;;;9.09;50.79
29215;BME280;16252;49.816;7.964;2024-03-25T02:10:02;99234.22;;;9.13;50.79
29215;BME280;16252;49.816;7.964;2024-03-25T02:12:29;99216.56;;;9.00;50.82
29215;BME280;16252;49.816;7.964;2024-03-25T02:14:55;99212.22;;;8.99;50.77
29215;BME280;16252;49.816;7.964;2024-03-25T02:17:20;99194.53;;;8.87;50.71
29215;BME280;16252;49.816;7.964;2024-03-25T02:19:45;99204.44;;;8.96;50.86
29215;BME280;16252;49.816;7.964;2024-03-25T02:22:10;99201.56;;;8.88;50.78
29215;BME280;16252;49.816;7.964;2024-03-25T02:24:37;99207.03;;;8.86;50.68
29215;BME280;16252;49.816;7.964;2024-03-25T02:27:03;99185.84;;;8.74;50.80
29215;BME280;16252;49.816;7.964;2024-03-25T02:29:35;99242.25;;;9.01;50.93
29215;BME280;16252;49.816;7.964;2024-03-25T02:32:01;99239.63;;;8.90;50.84
29215;BME280;16252;49.816;7.964;2024-03-25T02:34:26;99235.75;;;8.83;51.01
29215;BME280;16252;49.816;7.964;2024-03-25T02:36:52;99214.00;;;8.66;50.96
29215;BME280;16252;49.816;7.964;2024-03-25T02:39:19;99211.09;;;8.58;50.93
29215;BME280;16252;49.816;7.964;2024-03-25T02:41:44;99222.25;;;8.52;51.07
29215;BME280;16252;49.816;7.964;2024-03-25T02:44:10;99252.06;;;8.68;50.96
29215;BME280;16252;49.816;7.964;2024-03-25T02:46:35;99250.47;;;8.66;50.83
29215;BME280;16252;49.816;7.964;2024-03-25T02:49:01;99226.25;;;8.46;51.26
29215;BME280;16252;49.816;7.964;2024-03-25T02:51:26;99245.03;;;8.56;51.04
29215;BME280;16252;49.816;7.964;2024-03-25T02:53:51;99240.31;;;8.49;51.11
29215;BME280;16252;49.816;7.964;2024-03-25T02:56:16;99193.75;;;8.30;51.29
29215;BME280;16252;49.816;7.964;2024-03-25T02:58:42;99237.03;;;8.45;51.17
29215;BME280;16252;49.816;7.964;2024-03-25T03:01:07;99209.03;;;8.39;51.03
29215;BME280;16252;49.816;7.964;2024-03-25T03:03:32;99195.81;;;8.27;51.03
29215;BME280;16252;49.816;7.964;2024-03-25T03:05:58;99217.50;;;8.33;50.85
29215;BME280;16252;49.816;7.964;2024-03-25T03:08:23;99201.66;;;8.20;51.00
29215;BME280;16252;49.816;7.964;2024-03-25T03:10:48;99249.63;;;8.43;51.15
29215;BME280;16252;49.816;7.964;2024-03-25T03:13:13;99232.03;;;8.29;51.15
29215;BME280;16252;49.816;7.964;2024-03-25T03:15:43;99238.94;;;8.32;51.46
29215;BME280;16252;49.816;7.964;2024-03-25T03:18:08;99251.09;;;8.47;50.65
29215;BME280;16252;49.816;7.964;2024-03-25T03:20:34;99222.84;;;8.11;50.99
29215;BME280;16252;49.816;7.964;2024-03-25T03:22:59;99228.63;;;8.04;51.27
29215;BME280;16252;49.816;7.964;2024-03-25T03:25:24;99221.22;;;7.97;51.35
29215;BME280;16252;49.816;7.964;2024-03-25T03:27:49;99255.66;;;8.11;51.21
29215;BME280;16252;49.816;7.964;2024-03-25T03:30:15;99218.44;;;7.87;51.42
29215;BME280;16252;49.816;7.964;2024-03-25T03:32:40;99253.69;;;8.02;51.49
29215;BME280;16252;49.816;7.964;2024-03-25T03:35:05;99213.09;;;7.76;51.50
29215;BME280;16252;49.816;7.964;2024-03-25T03:37:31;99229.91;;;7.76;51.55
29215;BME280;16252;49.816;7.964;2024-03-25T03:39:56;99218.03;;;7.69;51.61
29215;BME280;16252;49.816;7.964;2024-03-25T03:42:21;99231.16;;;7.72;51.75
29215;BME280;16252;49.816;7.964;2024-03-25T03:44:47;99247.97;;;7.84;51.59
29215;BME280;16252;49.816;7.964;2024-03-25T03:47:12;99248.06;;;7.71;51.76
29215;BME280;16252;49.816;7.964;2024-03-25T03:49:37;99216.56;;;7.54;51.79
29215;BME280;16252;49.816;7.964;2024-03-25T03:52:03;99250.88;;;7.70;51.93
29215;BME280;16252;49.816;7.964;2024-03-25T03:54:28;99211.22;;;7.43;51.82
29215;BME280;16252;49.816;7.964;2024-03-25T03:56:53;99213.97;;;7.41;51.97
29215;BME280;16252;49.816;7.964;2024-03-25T03:59:19;99224.38;;;7.44;51.94
29215;BME280;16252;49.816;7.964;2024-03-25T04:01:44;99191.53;;;7.21;51.83
29215;BME280;16252;49.816;7.964;2024-03-25T04:04:09;99213.81;;;7.31;51.87
29215;BME280;16252;49.816;7.964;2024-03-25T04:06:35;99230.41;;;7.35;51.71
29215;BME280;16252;49.816;7.964;2024-03-25T04:09:00;99224.59;;;7.30;51.92
29215;BME280;16252;49.816;7.964;2024-03-25T04:11:25;99199.00;;;7.16;52.02
29215;BME280;16252;49.816;7.964;2024-03-25T04:13:51;99211.97;;;7.21;51.51
29215;BME280;16252;49.816;7.964;2024-03-25T04:16:16;99198.50;;;7.11;51.81
29215;BME280;16252;49.816;7.964;2024-03-25T04:18:42;99217.03;;;7.12;51.94
29215;BME280;16252;49.816;7.964;2024-03-25T04:21:11;99230.88;;;7.29;52.17
29215;BME280;16252;49.816;7.964;2024-03-25T04:23:37;99191.44;;;6.99;52.01
29215;BME280;16252;49.816;7.964;2024-03-25T04:26:03;99217.38;;;7.08;52.05
29215;BME280;16252;49.816;7.964;2024-03-25T04:28:31;99196.72;;;6.87;52.20
29215;BME280;16252;49.816;7.964;2024-03-25T04:30:56;99214.88;;;6.93;52.03
29215;BME280;16252;49.816;7.964;2024-03-25T04:33:21;99203.22;;;6.83;52.10
29215;BME280;16252;49.816;7.964;2024-03-25T04:35:47;99198.28;;;6.66;52.09
29215;BME280;16252;49.816;7.964;2024-03-25T04:38:12;99210.16;;;6.73;52.31
29215;BME280;16252;49.816;7.964;2024-03-25T04:40:38;99242.25;;;6.83;52.29
29215;BME280;16252;49.816;7.964;2024-03-25T04:43:04;99246.22;;;6.77;52.29
29215;BME280;16252;49.816;7.964;2024-03-25T04:45:29;99188.59;;;6.41;52.29
29215;BME280;16252;49.816;7.964;2024-03-25T04:47:54;99227.75;;;6.63;52.37
29215;BME280;16252;49.816;7.964;2024-03-25T04:50:20;99244.94;;;6.70;52.39
29215;BME280;16252;49.816;7.964;2024-03-25T04:52:45;99218.00;;;6.50;52.36
29215;BME280;16252;49.816;7.964;2024-03-25T04:55:11;99237.44;;;6.64;52.52
29215;BME280;16252;49.816;7.964;2024-03-25T04:57:36;99215.47;;;6.49;52.45
29215;BME280;16252;49.816;7.964;2024-03-25T05:00:01;99225.25;;;6.48;52.51
29215;BME280;16252;49.816;7.964;2024-03-25T05:02:27;99226.88;;;6.38;52.63
29215;BME280;16252;49.816;7.964;2024-03-25T05:04:52;99225.47;;;6.33;52.59
29215;BME280;16252;49.816;7.964;2024-03-25T05:07:18;99234.84;;;6.38;52.48
29215;BME280;16252;49.816;7.964;2024-03-25T05:09:43;99218.06;;;6.25;52.78
29215;BME280;16252;49.816;7.964;2024-03-25T05:12:09;99229.94;;;6.32;52.92
29215;BME280;16252;49.816;7.964;2024-03-25T05:14:34;99231.13;;;6.28;52.74
29215;BME280;16252;49.816;7.964;2024-03-25T05:17:00;99248.53;;;6.32;52.74
29215;BME280;16252;49.816;7.964;2024-03-25T05:19:27;99226.16;;;6.23;52.74
29215;BME280;16252;49.816;7.964;2024-03-25T05:21:52;99193.66;;;5.94;52.84
29215;BME280;16252;49.816;7.964;2024-03-25T05:24:17;99260.00;;;6.33;52.79
29215;BME280;16252;49.816;7.964;2024-03-25T05:26:43;99230.50;;;6.12;52.94
29215;BME280;16252;49.816;7.964;2024-03-25T05:29:08;99231.47;;;6.11;52.82
29215;BME280;16252;49.816;7.964;2024-03-25T05:31:33;99203.22;;;5.97;52.70
29215;BME280;16252;49.816;7.964;2024-03-25T05:33:59;99217.03;;;6.02;52.87
29215;BME280;16252;49.816;7.964;2024-03-25T05:36:27;99241.22;;;6.10;53.01
29215;BME280;16252;49.816;7.964;2024-03-25T05:38:53;99169.44;;;5.73;53.09
29215;BME280;16252;49.816;7.964;2024-03-25T05:41:18;99247.19;;;6.14;52.98
29215;BME280;16252;49.816;7.964;2024-03-25T05:43:43;99226.78;;;6.01;52.82
29215;BME280;16252;49.816;7.964;2024-03-25T05:46:08;99226.56;;;6.04;53.07
29215;BME280;16252;49.816;7.964;2024-03-25T05:48:34;99259.63;;;6.13;53.05
29215;BME280;16252;49.816;7.964;2024-03-25T05:51:02;99237.63;;;5.98;53.26
29215;BME280;16252;49.816;7.964;2024-03-25T05:53:28;99252.06;;;6.07;53.23
29215;BME280;16252;49.816;7.964;2024-03-25T05:55:54;99242.19;;;5.96;53.04
29215;BME280;16252;49.816;7.964;2024-03-25T05:58:19;99238.78;;;5.94;53.08
29215;BME280;16252;49.816;7.964;2024-03-25T06:00:47;99254.94;;;6.04;53.46
29215;BME280;16252;49.816;7.964;2024-03-25T06:03:12;99253.88;;;5.94;53.38
29215;BME280;16252;49.816;7.964;2024-03-25T06:05:37;99236.75;;;5.85;53.40
29215;BME280;16252;49.816;7.964;2024-03-25T06:08:03;99223.16;;;5.77;53.41
29215;BME280;16252;49.816;7.964;2024-03-25T06:10:28;99235.88;;;5.84;53.55
29215;BME280;16252;49.816;7.964;2024-03-25T06:12:54;99248.63;;;5.92;53.69
29215;BME280;16252;49.816;7.964;2024-03-25T06:15:19;99239.06;;;5.90;53.73
29215;BME280;16252;49.816;7.964;2024-03-25T06:17:44;99255.25;;;5.99;53.74
29215;BME280;16252;49.816;7.964;2024-03-25T06:20:10;99272.25;;;6.10;53.82
29215;BME280;16252;49.816;7.964;2024-03-25T06:22:35;99259.19;;;6.06;54.08
29215;BME280;16252;49.816;7.964;2024-03-25T06:25:00;99259.09;;;6.08;53.77
29215;BME280;16252;49.816;7.964;2024-03-25T06:27:26;99243.69;;;6.00;54.01
29215;BME280;16252;49.816;7.964;2024-03-25T06:29:51;99210.44;;;5.95;54.01
29215;BME280;16252;49.816;7.964;2024-03-25T06:32:36;99241.13;;;6.12;53.94
29215;BME280;16252;49.816;7.964;2024-03-25T06:35:20;99252.94;;;6.20;53.96
29215;BME280;16252;49.816;7.964;2024-03-25T06:37:45;99249.00;;;6.26;53.89
29215;BME280;16252;49.816;7.964;2024-03-25T06:40:11;99283.19;;;6.43;54.07
29215;BME280;16252;49.816;7.964;2024-03-25T06:42:36;99273.19;;;6.47;54.06
29215;BME280;16252;49.816;7.964;2024-03-25T06:45:02;99263.31;;;6.49;54.11
29215;BME280;16252;49.816;7.964;2024-03-25T06:47:27;99282.41;;;6.67;54.25
29215;BME280;16252;49.816;7.964;2024-03-25T06:49:53;99260.28;;;6.66;54.22
29215;BME280;16252;49.816;7.964;2024-03-25T06:52:18;99252.50;;;6.63;54.15
29215;BME280;16252;49.816;7.964;2024-03-25T06:54:43;99245.78;;;6.70;54.12
29215;BME280;16252;49.816;7.964;2024-03-25T06:57:08;99253.22;;;6.78;54.25
29215;BME280;16252;49.816;7.964;2024-03-25T06:59:34;99242.59;;;6.78;54.21
29215;BME280;16252;49.816;7.964;2024-03-25T07:02:01;99267.72;;;6.98;54.17
29215;BME280;16252;49.816;7.964;2024-03-25T07:04:26;99239.16;;;6.89;54.13
29215;BME280;16252;49.816;7.964;2024-03-25T07:06:51;99257.25;;;7.08;54.15
29215;BME280;16252;49.816;7.964;2024-03-25T07:09:17;99252.69;;;7.10;54.14
29215;BME280;16252;49.816;7.964;2024-03-25T07:11:42;99269.44;;;7.23;54.12
29215;BME280;16252;49.816;7.964;2024-03-25T07:14:11;99260.50;;;7.24;54.08
29215;BME280;16252;49.816;7.964;2024-03-25T07:16:37;99265.53;;;7.40;53.99
29215;BME280;16252;49.816;7.964;2024-03-25T07:19:02;99266.97;;;7.44;54.14
29215;BME280;16252;49.816;7.964;2024-03-25T07:21:31;99260.47;;;7.48;54.15
29215;BME280;16252;49.816;7.964;2024-03-25T07:23:56;99274.19;;;7.66;54.06
29215;BME280;16252;49.816;7.964;2024-03-25T07:26:21;99266.84;;;7.70;54.26
29215;BME280;16252;49.816;7.964;2024-03-25T07:28:46;99266.84;;;7.81;54.14
29215;BME280;16252;49.816;7.964;2024-03-25T07:31:12;99247.63;;;7.77;54.17
29215;BME280;16252;49.816;7.964;2024-03-25T07:33:37;99217.19;;;7.69;54.30
29215;BME280;16252;49.816;7.964;2024-03-25T07:36:03;99288.13;;;8.16;54.13
29215;BME280;16252;49.816;7.964;2024-03-25T07:38:28;99293.59;;;8.26;54.00
29215;BME280;16252;49.816;7.964;2024-03-25T07:40:53;99241.09;;;8.04;54.00
29215;BME280;16252;49.816;7.964;2024-03-25T07:43:18;99271.28;;;8.27;53.91
29215;BME280;16252;49.816;7.964;2024-03-25T07:45:44;99282.59;;;8.42;53.69
29215;BME280;16252;49.816;7.964;2024-03-25T07:48:09;99264.41;;;8.36;53.86
29215;BME280;16252;49.816;7.964;2024-03-25T07:50:34;99272.16;;;8.50;53.93
29215;BME280;16252;49.816;7.964;2024-03-25T07:52:59;99279.34;;;8.61;53.95
29215;BME280;16252;49.816;7.964;2024-03-25T07:55:25;99257.03;;;8.62;53.85
29215;BME280;16252;49.816;7.964;2024-03-25T07:57:51;99253.75;;;8.70;53.89
29215;BME280;16252;49.816;7.964;2024-03-25T08:00:16;99259.19;;;8.79;53.80
29215;BME280;16252;49.816;7.964;2024-03-25T08:02:42;99248.84;;;8.86;53.91
29215;BME280;16252;49.816;7.964;2024-03-25T08:05:07;99229.59;;;8.82;53.97
29215;BME280;16252;49.816;7.964;2024-03-25T08:07:33;99255.94;;;9.08;53.85
29215;BME280;16252;49.816;7.964;2024-03-25T08:09:59;99259.72;;;9.17;53.83
29215;BME280;16252;49.816;7.964;2024-03-25T08:12:24;99260.88;;;9.24;53.64
29215;BME280;16252;49.816;7.964;2024-03-25T08:14:49;99258.91;;;9.37;53.56
29215;BME280;16252;49.816;7.964;2024-03-25T08:17:14;99238.19;;;9.29;53.67
29215;BME280;16252;49.816;7.964;2024-03-25T08:19:40;99243.19;;;9.44;53.59
29215;BME280;16252;49.816;7.964;2024-03-25T08:22:05;99240.88;;;9.50;53.66
29215;BME280;16252;49.816;7.964;2024-03-25T08:24:30;99244.19;;;9.64;53.88
29215;BME280;16252;49.816;7.964;2024-03-25T08:26:55;99264.88;;;9.83;53.79
29215;BME280;16252;49.816;7.964;2024-03-25T08:29:21;99241.94;;;9.80;53.47
29215;BME280;16252;49.816;7.964;2024-03-25T08:31:46;99260.09;;;10.07;53.32
29215;BME280;16252;49.816;7.964;2024-03-25T08:34:11;99258.19;;;10.19;53.36
29215;BME280;16252;49.816;7.964;2024-03-25T08:36:36;99243.59;;;10.23;53.43
29215;BME280;16252;49.816;7.964;2024-03-25T08:39:02;99225.72;;;10.24;53.40
29215;BME280;16252;49.816;7.964;2024-03-25T08:41:27;99235.22;;;10.37;53.09
29215;BME280;16252;49.816;7.964;2024-03-25T08:43:52;99252.63;;;10.62;52.97
29215;BME280;16252;49.816;7.964;2024-03-25T08:46:17;99213.63;;;10.60;52.72
29215;BME280;16252;49.816;7.964;2024-03-25T08:48:43;99227.50;;;10.84;52.73
29215;BME280;16252;49.816;7.964;2024-03-25T08:51:08;99241.34;;;10.99;52.53
29215;BME280;16252;49.816;7.964;2024-03-25T08:53:33;99240.91;;;11.14;52.36
29215;BME280;16252;49.816;7.964;2024-03-25T08:55:58;99231.75;;;11.26;52.00
29215;BME280;16252;49.816;7.964;2024-03-25T08:58:24;99240.09;;;11.42;51.68
29215;BME280;16252;49.816;7.964;2024-03-25T09:00:49;99209.78;;;11.42;51.48
29215;BME280;16252;49.816;7.964;2024-03-25T09:03:14;99185.25;;;11.37;51.57
29215;BME280;16252;49.816;7.964;2024-03-25T09:05:40;99226.53;;;11.83;51.19
29215;BME280;16252;49.816;7.964;2024-03-25T09:08:06;99188.44;;;11.69;50.86
29215;BME280;16252;49.816;7.964;2024-03-25T09:10:31;99221.84;;;12.04;50.78
29215;BME280;16252;49.816;7.964;2024-03-25T09:13:15;99221.78;;;12.24;51.09
29215;BME280;16252;49.816;7.964;2024-03-25T09:15:40;99229.03;;;12.51;50.62
29215;BME280;16252;49.816;7.964;2024-03-25T09:18:05;99242.19;;;12.72;50.32
29215;BME280;16252;49.816;7.964;2024-03-25T09:20:34;99192.47;;;12.68;49.68
29215;BME280;16252;49.816;7.964;2024-03-25T09:22:59;99207.47;;;12.88;49.58
29215;BME280;16252;49.816;7.964;2024-03-25T09:25:24;99208.94;;;13.00;49.78
29215;BME280;16252;49.816;7.964;2024-03-25T09:27:50;99220.50;;;13.29;49.79
29215;BME280;16252;49.816;7.964;2024-03-25T09:30:16;99168.53;;;13.20;49.63
29215;BME280;16252;49.816;7.964;2024-03-25T09:32:44;99156.78;;;13.39;49.99
29215;BME280;16252;49.816;7.964;2024-03-25T09:35:10;99179.91;;;13.76;49.85
29215;BME280;16252;49.816;7.964;2024-03-25T09:37:36;99175.94;;;14.14;50.54
29215;BME280;16252;49.816;7.964;2024-03-25T09:40:02;99174.53;;;14.70;50.04
29215;BME280;16252;49.816;7.964;2024-03-25T09:42:52;99180.38;;;15.33;49.93
29215;BME280;16252;49.816;7.964;2024-03-25T09:45:26;99170.59;;;15.81;48.42
29215;BME280;16252;49.816;7.964;2024-03-25T09:47:54;99166.38;;;16.42;48.35
29215;BME280;16252;49.816;7.964;2024-03-25T09:50:20;99157.59;;;17.11;47.69
29215;BME280;16252;49.816;7.964;2024-03-25T09:52:49;99156.03;;;17.77;46.32
29215;BME280;16252;49.816;7.964;2024-03-25T09:55:15;99155.81;;;18.32;45.68
29215;BME280;16252;49.816;7.964;2024-03-25T09:57:42;99177.88;;;18.95;45.39
29215;BME280;16252;49.816;7.964;2024-03-25T10:00:09;99134.78;;;19.21;44.21
29215;BME280;16252;49.816;7.964;2024-03-25T10:02:37;99115.06;;;19.56;43.78
29215;BME280;16252;49.816;7.964;2024-03-25T10:05:04;99092.19;;;19.65;42.13
29215;BME280;16252;49.816;7.964;2024-03-25T10:07:30;99103.78;;;19.80;41.48
29215;BME280;16252;49.816;7.964;2024-03-25T10:09:55;99140.63;;;19.96;41.25
29215;BME280;16252;49.816;7.964;2024-03-25T10:12:21;99117.97;;;19.82;41.38
29215;BME280;16252;49.816;7.964;2024-03-25T10:14:46;99101.91;;;19.81;41.89
29215;BME280;16252;49.816;7.964;2024-03-25T10:17:13;99115.91;;;20.19;41.26
29215;BME280;16252;49.816;7.964;2024-03-25T10:19:38;99100.97;;;20.43;41.03
29215;BME280;16252;49.816;7.964;2024-03-25T10:22:08;99148.66;;;21.00;41.44
29215;BME280;16252;49.816;7.964;2024-03-25T10:24:43;99140.34;;;21.29;45.52
29215;BME280;16252;49.816;7.964;2024-03-25T10:27:22;99110.69;;;21.40;41.70
29215;BME280;16252;49.816;7.964;2024-03-25T10:29:48;99106.25;;;21.59;40.00
29215;BME280;16252;49.816;7.964;2024-03-25T10:32:16;99092.44;;;21.74;39.72
29215;BME280;16252;49.816;7.964;2024-03-25T10:34:42;99102.81;;;22.17;40.57
29215;BME280;16252;49.816;7.964;2024-03-25T10:37:11;99111.69;;;22.64;39.78
29215;BME280;16252;49.816;7.964;2024-03-25T10:39:40;99115.44;;;23.08;44.71
29215;BME280;16252;49.816;7.964;2024-03-25T10:42:12;99097.97;;;23.48;39.48
29215;BME280;16252;49.816;7.964;2024-03-25T10:44:38;99115.31;;;24.04;38.33
29215;BME280;16252;49.816;7.964;2024-03-25T10:47:05;99082.22;;;24.30;37.40
29215;BME280;16252;49.816;7.964;2024-03-25T10:49:44;99096.78;;;24.79;38.76
29215;BME280;16252;49.816;7.964;2024-03-25T10:52:14;99101.16;;;25.11;36.03
29215;BME280;16252;49.816;7.964;2024-03-25T10:54:41;99096.19;;;25.19;34.70
29215;BME280;16252;49.816;7.964;2024-03-25T10:57:09;99025.09;;;25.01;34.37
29215;BME280;16252;49.816;7.964;2024-03-25T10:59:35;99065.06;;;25.32;34.22
29215;BME280;16252;49.816;7.964;2024-03-25T11:02:03;99045.28;;;25.30;34.52
29215;BME280;16252;49.816;7.964;2024-03-25T11:04:28;99039.56;;;25.32;33.59
29215;BME280;16252;49.816;7.964;2024-03-25T11:07:15;99075.91;;;25.50;35.12
29215;BME280;16252;49.816;7.964;2024-03-25T11:09:41;99062.31;;;25.44;33.04
29215;BME280;16252;49.816;7.964;2024-03-25T11:12:10;99064.34;;;25.48;33.09
29215;BME280;16252;49.816;7.964;2024-03-25T11:14:36;99039.34;;;25.33;32.36
29215;BME280;16252;49.816;7.964;2024-03-25T11:17:01;99049.81;;;25.36;32.54
29215;BME280;16252;49.816;7.964;2024-03-25T11:19:30;99029.94;;;25.17;32.00
29215;BME280;16252;49.816;7.964;2024-03-25T11:22:07;99039.59;;;24.90;33.00
29215;BME280;16252;49.816;7.964;2024-03-25T11:24:34;99055.63;;;24.56;31.51
29215;BME280;16252;49.816;7.964;2024-03-25T11:27:02;99034.63;;;24.01;31.61
29215;BME280;16252;49.816;7.964;2024-03-25T11:29:27;99027.59;;;23.50;31.98
29215;BME280;16252;49.816;7.964;2024-03-25T11:31:52;99044.03;;;23.18;32.10
29215;BME280;16252;49.816;7.964;2024-03-25T11:34:18;99039.88;;;22.77;32.37
29215;BME280;16252;49.816;7.964;2024-03-25T11:36:43;99019.00;;;22.26;32.63
29215;BME280;16252;49.816;7.964;2024-03-25T11:39:08;98966.19;;;21.62;32.80
29215;BME280;16252;49.816;7.964;2024-03-25T11:41:41;99026.69;;;21.71;30.93
29215;BME280;16252;49.816;7.964;2024-03-25T11:44:11;99007.03;;;21.29;33.03
29215;BME280;16252;49.816;7.964;2024-03-25T11:46:39;99015.84;;;20.97;33.66
29215;BME280;16252;49.816;7.964;2024-03-25T11:49:12;99006.59;;;20.59;32.73
29215;BME280;16252;49.816;7.964;2024-03-25T11:51:37;98993.72;;;20.19;33.84
29215;BME280;16252;49.816;7.964;2024-03-25T11:54:06;98997.59;;;19.97;33.92
29215;BME280;16252;49.816;7.964;2024-03-25T11:56:31;98951.34;;;19.42;34.27
29215;BME280;16252;49.816;7.964;2024-03-25T11:58:59;99006.53;;;19.56;34.23
29215;BME280;16252;49.816;7.964;2024-03-25T12:01:25;98981.19;;;19.14;34.32
29215;BME280;16252;49.816;7.964;2024-03-25T12:03:50;98981.44;;;18.91;34.78
29215;BME280;16252;49.816;7.964;2024-03-25T12:06:16;98949.84;;;18.55;34.92
29215;BME280;16252;49.816;7.964;2024-03-25T12:08:41;98955.38;;;18.47;34.73
29215;BME280;16252;49.816;7.964;2024-03-25T12:11:26;98938.09;;;18.26;35.04
29215;BME280;16252;49.816;7.964;2024-03-25T12:13:51;98948.28;;;18.24;35.14
29215;BME280;16252;49.816;7.964;2024-03-25T12:16:17;98974.22;;;18.33;35.06
29215;BME280;16252;49.816;7.964;2024-03-25T12:18:42;98967.81;;;18.19;35.19
29215;BME280;16252;49.816;7.964;2024-03-25T12:21:08;98903.69;;;17.84;35.27
29215;BME280;16252;49.816;7.964;2024-03-25T12:23:33;98965.94;;;18.20;35.27
29215;BME280;16252;49.816;7.964;2024-03-25T12:26:00;98942.25;;;18.07;34.72
29215;BME280;16252;49.816;7.964;2024-03-25T12:28:26;98887.47;;;17.69;35.10
29215;BME280;16252;49.816;7.964;2024-03-25T12:30:53;98882.44;;;17.66;34.36
29215;BME280;16252;49.816;7.964;2024-03-25T12:33:19;98901.81;;;17.69;34.33
29215;BME280;16252;49.816;7.964;2024-03-25T12:35:48;98929.13;;;17.74;34.76
29215;BME280;16252;49.816;7.964;2024-03-25T12:38:28;98898.69;;;17.51;34.29
29215;BME280;16252;49.816;7.964;2024-03-25T12:41:07;98932.25;;;17.57;34.99
29215;BME280;16252;49.816;7.964;2024-03-25T12:43:32;98844.69;;;16.92;34.98
29215;BME280;16252;49.816;7.964;2024-03-25T12:45:59;98842.41;;;16.80;35.13
29215;BME280;16252;49.816;7.964;2024-03-25T12:48:24;98856.31;;;16.92;35.19
29215;BME280;16252;49.816;7.964;2024-03-25T12:50:50;98843.09;;;16.82;35.04
29215;BME280;16252;49.816;7.964;2024-03-25T12:53:17;98865.81;;;16.88;34.77
29215;BME280;16252;49.816;7.964;2024-03-25T12:55:43;98865.81;;;16.88;34.78
29215;BME280;16252;49.816;7.964;2024-03-25T12:58:08;98874.84;;;16.95;34.88
29215;BME280;16252;49.816;7.964;2024-03-25T13:00:33;98866.63;;;16.88;34.31
29215;BME280;16252;49.816;7.964;2024-03-25T13:02:59;98850.22;;;16.75;34.58